createdAt,value
2023-09-29T00:02:20.021Z,56.86
2023-09-29T00:04:46.196Z,57.25
2023-09-29T00:07:12.377Z,56.75
2023-09-29T00:09:38.543Z,57.87
2023-09-29T00:12:04.699Z,57.80
2023-09-29T00:14:30.874Z,56.83
2023-09-29T00:16:57.049Z,57.03
2023-09-29T00:19:23.263Z,55.90
2023-09-29T00:21:49.436Z,55.34
2023-09-29T00:24:15.618Z,54.31
2023-09-29T00:26:41.845Z,54.06
2023-09-29T00:29:08.041Z,53.99
2023-09-29T00:31:34.251Z,53.95
2023-09-29T00:34:00.580Z,54.88
2023-09-29T00:36:26.740Z,55.15
2023-09-29T00:38:52.997Z,55.36
2023-09-29T00:41:19.252Z,55.83
2023-09-29T00:43:45.440Z,55.77
2023-09-29T00:46:11.696Z,56.72
2023-09-29T00:48:37.950Z,57.31
2023-09-29T00:51:04.197Z,58.67
2023-09-29T00:53:30.462Z,59.15
2023-09-29T00:55:56.653Z,59.06
2023-09-29T00:58:22.817Z,58.99
2023-09-29T01:00:49.005Z,58.58
2023-09-29T01:03:15.343Z,59.38
2023-09-29T01:05:41.666Z,59.25
2023-09-29T01:08:07.849Z,60.21
2023-09-29T01:10:34.000Z,59.54
2023-09-29T01:13:00.175Z,58.50
2023-09-29T01:15:26.340Z,56.19
2023-09-29T01:17:52.618Z,55.91
2023-09-29T01:20:18.794Z,57.01
2023-09-29T01:22:44.974Z,56.04
2023-09-29T01:25:11.135Z,55.86
2023-09-29T01:27:37.287Z,56.38
2023-09-29T01:30:03.457Z,58.45
2023-09-29T01:32:29.703Z,59.14
2023-09-29T01:34:55.938Z,59.54
2023-09-29T01:37:22.087Z,59.51
2023-09-29T01:39:48.269Z,58.41
2023-09-29T01:42:14.433Z,58.97
2023-09-29T01:44:40.738Z,58.16
2023-09-29T01:47:07.097Z,57.01
2023-09-29T01:49:33.482Z,58.05
2023-09-29T01:51:59.643Z,58.90
2023-09-29T01:54:25.820Z,57.63
2023-09-29T01:56:52.227Z,56.40
2023-09-29T01:59:18.407Z,57.07
2023-09-29T02:01:44.559Z,57.69
2023-09-29T02:04:10.797Z,58.66
2023-09-29T02:06:37.005Z,58.20
2023-09-29T02:09:03.172Z,58.64
2023-09-29T02:11:29.416Z,59.17
2023-09-29T02:13:55.611Z,59.10
2023-09-29T02:16:21.762Z,58.64
2023-09-29T02:18:48.189Z,57.74
2023-09-29T02:21:14.527Z,57.17
2023-09-29T02:23:40.718Z,57.33
2023-09-29T02:26:06.881Z,58.05
2023-09-29T02:28:33.146Z,57.93
2023-09-29T02:30:59.475Z,57.98
2023-09-29T02:33:25.744Z,56.97
2023-09-29T02:35:52.021Z,56.34
2023-09-29T02:38:18.212Z,55.61
2023-09-29T02:40:44.376Z,56.26
2023-09-29T02:43:10.553Z,56.84
2023-09-29T02:45:36.716Z,56.63
2023-09-29T02:48:02.973Z,56.28
2023-09-29T02:50:29.241Z,55.41
2023-09-29T02:52:55.453Z,55.29
2023-09-29T02:55:21.605Z,55.15
2023-09-29T02:57:47.855Z,54.90
2023-09-29T03:00:14.050Z,55.20
2023-09-29T03:02:40.318Z,55.12
2023-09-29T03:05:06.571Z,55.74
2023-09-29T03:07:32.745Z,56.89
2023-09-29T03:09:58.909Z,57.44
2023-09-29T03:12:25.111Z,58.03
2023-09-29T03:14:51.309Z,57.84
2023-09-29T03:17:17.466Z,58.29
2023-09-29T03:19:43.638Z,59.36
2023-09-29T03:22:09.805Z,59.03
2023-09-29T03:24:35.953Z,59.09
2023-09-29T03:27:02.163Z,58.38
2023-09-29T03:29:28.355Z,58.33
2023-09-29T03:31:54.712Z,57.22
2023-09-29T03:34:21.105Z,57.84
2023-09-29T03:36:47.276Z,57.85
2023-09-29T03:39:13.455Z,57.75
2023-09-29T03:41:39.696Z,57.62
2023-09-29T03:44:05.865Z,57.46
2023-09-29T03:46:32.052Z,57.42
2023-09-29T03:48:58.256Z,57.72
2023-09-29T03:51:24.442Z,58.08
2023-09-29T03:53:50.638Z,58.04
2023-09-29T03:56:16.802Z,55.97
2023-09-29T03:58:42.950Z,56.03
2023-09-29T04:01:09.138Z,55.74
2023-09-29T04:03:35.440Z,56.17
2023-09-29T04:06:01.789Z,56.56
2023-09-29T04:08:28.049Z,58.20
2023-09-29T04:10:54.239Z,57.86
2023-09-29T04:13:20.470Z,58.64
2023-09-29T04:15:46.621Z,57.32
2023-09-29T04:18:12.989Z,58.69
2023-09-29T04:20:39.224Z,59.33
2023-09-29T04:23:05.388Z,58.41
2023-09-29T04:25:31.568Z,58.49
2023-09-29T04:27:57.732Z,56.48
2023-09-29T04:30:23.915Z,57.51
2023-09-29T04:32:50.169Z,58.21
2023-09-29T04:35:16.395Z,57.94
2023-09-29T04:37:42.536Z,57.32
2023-09-29T04:40:08.696Z,57.76
2023-09-29T04:42:34.867Z,57.08
2023-09-29T04:45:01.087Z,57.81
2023-09-29T04:47:27.315Z,57.60
2023-09-29T04:49:53.478Z,57.64
2023-09-29T04:52:19.632Z,57.58
2023-09-29T04:54:45.806Z,56.29
2023-09-29T04:57:11.994Z,57.25
2023-09-29T04:59:38.161Z,56.68
2023-09-29T05:02:04.361Z,56.90
2023-09-29T05:04:30.548Z,56.77
2023-09-29T05:06:56.730Z,55.93
2023-09-29T05:09:22.902Z,57.13
2023-09-29T05:11:49.204Z,56.78
2023-09-29T05:14:15.451Z,56.79
2023-09-29T05:16:41.685Z,55.61
2023-09-29T05:19:07.954Z,54.90
2023-09-29T05:21:34.169Z,55.66
2023-09-29T05:24:00.407Z,55.26
2023-09-29T05:26:26.660Z,57.53
2023-09-29T05:28:52.827Z,57.23
2023-09-29T05:31:18.998Z,57.59
2023-09-29T05:33:45.249Z,56.94
2023-09-29T05:36:11.500Z,56.87
2023-09-29T05:38:37.741Z,56.22
2023-09-29T05:41:03.909Z,56.17
2023-09-29T05:43:30.110Z,56.47
2023-09-29T05:45:56.298Z,54.66
2023-09-29T05:48:22.511Z,55.28
2023-09-29T05:50:50.665Z,55.23
2023-09-29T05:53:17.330Z,53.39
2023-09-29T05:55:43.514Z,52.34
2023-09-29T05:58:09.704Z,52.86
2023-09-29T06:00:35.892Z,52.30
2023-09-29T06:03:02.257Z,51.92
2023-09-29T06:05:28.513Z,51.57
2023-09-29T06:07:57.723Z,49.39
2023-09-29T06:10:24.661Z,53.95
2023-09-29T06:12:50.821Z,54.88
2023-09-29T06:15:16.981Z,53.94
2023-09-29T06:17:43.232Z,54.17
2023-09-29T06:20:09.436Z,53.47
2023-09-29T06:22:35.599Z,54.85
2023-09-29T06:25:01.763Z,53.04
2023-09-29T06:27:27.970Z,54.09
2023-09-29T06:29:54.159Z,54.31
2023-09-29T06:32:20.351Z,53.65
2023-09-29T06:34:46.555Z,53.85
2023-09-29T06:37:12.736Z,53.51
2023-09-29T06:39:38.899Z,53.16
2023-09-29T06:42:05.207Z,52.83
2023-09-29T06:44:31.446Z,52.89
2023-09-29T06:46:57.608Z,52.55
2023-09-29T06:49:23.751Z,52.21
2023-09-29T06:51:49.983Z,52.74
2023-09-29T06:54:16.288Z,52.13
2023-09-29T06:56:42.535Z,52.47
2023-09-29T06:59:09.856Z,52.54
2023-09-29T07:01:36.386Z,52.41
2023-09-29T07:04:08.111Z,51.55
2023-09-29T07:06:35.245Z,52.01
2023-09-29T07:09:01.482Z,51.93
2023-09-29T07:11:27.662Z,53.28
2023-09-29T07:13:53.834Z,53.83
2023-09-29T07:16:20.018Z,53.35
2023-09-29T07:18:46.331Z,53.53
2023-09-29T07:21:12.602Z,54.38
2023-09-29T07:23:38.847Z,55.65
2023-09-29T07:26:05.036Z,55.94
2023-09-29T07:28:31.227Z,56.12
2023-09-29T07:30:57.452Z,55.78
2023-09-29T07:33:23.684Z,55.13
2023-09-29T07:35:49.924Z,55.13
2023-09-29T07:38:16.128Z,55.62
2023-09-29T07:40:42.329Z,57.38
2023-09-29T07:43:08.484Z,55.66
2023-09-29T07:45:34.637Z,54.32
2023-09-29T07:48:00.956Z,53.54
2023-09-29T07:50:27.183Z,52.78
2023-09-29T07:52:53.341Z,52.60
2023-09-29T07:55:19.508Z,52.22
2023-09-29T07:57:45.733Z,49.02
2023-09-29T08:00:11.946Z,47.61
2023-09-29T08:02:38.196Z,47.83
2023-09-29T08:05:04.410Z,48.38
2023-09-29T08:07:30.579Z,47.62
2023-09-29T08:09:56.791Z,47.50
2023-09-29T08:12:22.960Z,47.01
2023-09-29T08:14:49.138Z,45.59
2023-09-29T08:17:15.324Z,45.69
2023-09-29T08:19:41.504Z,46.02
2023-09-29T08:22:07.668Z,45.60
2023-09-29T08:24:33.832Z,45.38
2023-09-29T08:27:00.013Z,44.78
2023-09-29T08:29:26.214Z,44.96
2023-09-29T08:31:52.424Z,44.77
2023-09-29T08:34:18.665Z,44.65
2023-09-29T08:36:44.874Z,43.66
2023-09-29T08:39:11.041Z,43.22
2023-09-29T08:41:37.214Z,43.09
2023-09-29T08:44:07.745Z,43.43
2023-09-29T08:46:34.644Z,43.63
2023-09-29T08:49:00.909Z,42.81
2023-09-29T08:51:27.128Z,41.47
2023-09-29T08:53:53.357Z,41.25
2023-09-29T08:56:19.564Z,40.75
2023-09-29T08:58:45.725Z,41.47
2023-09-29T09:01:11.900Z,40.60
2023-09-29T09:03:38.195Z,40.02
2023-09-29T09:06:04.429Z,39.57
2023-09-29T09:08:30.628Z,39.16
2023-09-29T09:10:56.790Z,39.81
2023-09-29T09:13:23.057Z,39.04
2023-09-29T09:15:49.251Z,39.20
2023-09-29T09:18:15.530Z,42.13
2023-09-29T09:20:41.805Z,41.90
2023-09-29T09:23:08.006Z,40.34
2023-09-29T09:25:34.181Z,40.52
2023-09-29T09:28:00.352Z,40.22
2023-09-29T09:30:26.594Z,40.63
2023-09-29T09:32:53.151Z,40.48
2023-09-29T09:35:19.518Z,41.36
2023-09-29T09:37:45.696Z,43.94
2023-09-29T09:40:11.911Z,39.76
2023-09-29T09:42:38.095Z,41.87
2023-09-29T09:45:04.287Z,42.62
2023-09-29T09:47:30.503Z,42.35
2023-09-29T09:49:56.688Z,42.54
2023-09-29T09:52:22.845Z,42.92
2023-09-29T09:54:49.002Z,43.76
2023-09-29T09:57:15.228Z,43.70
2023-09-29T09:59:41.487Z,44.14
2023-09-29T10:02:07.677Z,43.08
2023-09-29T10:04:34.000Z,42.04
2023-09-29T10:07:00.218Z,39.99
2023-09-29T10:09:26.444Z,39.55
2023-09-29T10:11:52.630Z,43.44
2023-09-29T10:14:18.944Z,42.98
2023-09-29T10:16:45.137Z,41.11
2023-09-29T10:19:11.311Z,40.55
2023-09-29T10:21:37.476Z,41.86
2023-09-29T10:24:03.720Z,40.45
2023-09-29T10:26:30.348Z,37.78
2023-09-29T10:28:56.737Z,38.95
2023-09-29T10:31:23.000Z,39.37
2023-09-29T10:33:49.228Z,40.78
2023-09-29T10:36:15.426Z,39.43
2023-09-29T10:38:41.752Z,34.73
2023-09-29T10:41:23.297Z,37.17
2023-09-29T10:43:54.331Z,37.14
2023-09-29T10:46:20.770Z,35.12
2023-09-29T10:48:47.106Z,36.89
2023-09-29T10:51:13.384Z,36.27
2023-09-29T10:53:39.622Z,34.55
2023-09-29T10:56:05.814Z,35.30
2023-09-29T10:58:31.980Z,33.37
2023-09-29T11:00:58.168Z,34.77
2023-09-29T11:03:24.417Z,35.00
2023-09-29T11:05:50.728Z,33.76
2023-09-29T11:08:17.004Z,35.25
2023-09-29T11:10:43.392Z,34.63
2023-09-29T11:13:09.593Z,33.96
2023-09-29T11:15:35.762Z,34.37
2023-09-29T11:18:02.030Z,34.76
2023-09-29T11:20:28.610Z,35.56
2023-09-29T11:22:54.954Z,34.25
2023-09-29T11:25:21.181Z,33.98
2023-09-29T11:27:47.433Z,34.61
2023-09-29T11:30:13.652Z,33.94
2023-09-29T11:32:40.704Z,34.43
2023-09-29T11:35:06.956Z,33.31
2023-09-29T11:37:33.130Z,34.00
2023-09-29T11:39:59.276Z,34.21
2023-09-29T11:42:25.496Z,35.18
2023-09-29T11:44:51.797Z,34.95
2023-09-29T11:47:17.997Z,34.10
2023-09-29T11:49:44.172Z,34.87
2023-09-29T11:52:10.469Z,33.30
2023-09-29T11:54:36.640Z,32.48
2023-09-29T11:57:02.863Z,32.76
2023-09-29T11:59:29.058Z,32.09
2023-09-29T12:01:55.266Z,31.61
2023-09-29T12:04:21.535Z,32.33
2023-09-29T12:06:47.774Z,31.81
2023-09-29T12:09:14.009Z,32.63
2023-09-29T12:11:40.160Z,32.34
2023-09-29T12:14:06.493Z,32.71
2023-09-29T12:16:32.825Z,32.54
2023-09-29T12:18:59.030Z,32.30
2023-09-29T12:21:25.216Z,32.23
2023-09-29T12:23:51.502Z,32.37
2023-09-29T12:26:17.728Z,32.69
2023-09-29T12:28:43.906Z,31.04
2023-09-29T12:31:10.122Z,29.45
2023-09-29T12:33:36.334Z,31.42
2023-09-29T12:36:02.607Z,31.22
2023-09-29T12:38:28.812Z,31.20
2023-09-29T12:40:54.974Z,30.82
2023-09-29T12:43:21.124Z,31.06
2023-09-29T12:45:47.344Z,31.19
2023-09-29T12:48:13.567Z,31.25
2023-09-29T12:50:39.945Z,32.86
2023-09-29T12:53:06.278Z,33.97
2023-09-29T12:55:32.488Z,34.68
2023-09-29T12:57:58.742Z,34.01
2023-09-29T13:00:24.930Z,34.54
2023-09-29T13:02:51.247Z,34.72
2023-09-29T13:05:17.601Z,36.41
2023-09-29T13:07:43.805Z,35.48
2023-09-29T13:10:09.964Z,34.46
2023-09-29T13:12:36.171Z,34.21
2023-09-29T13:15:02.394Z,34.86
2023-09-29T13:17:28.643Z,34.66
2023-09-29T13:19:54.817Z,33.32
2023-09-29T13:22:20.994Z,32.56
2023-09-29T13:24:47.172Z,31.43
2023-09-29T13:27:13.370Z,31.57
2023-09-29T13:29:39.540Z,30.76
2023-09-29T13:32:05.772Z,30.42
2023-09-29T13:34:31.997Z,30.34
2023-09-29T13:36:58.229Z,31.37
2023-09-29T13:39:24.492Z,33.01
2023-09-29T13:41:50.709Z,32.57
2023-09-29T13:44:16.982Z,33.24
2023-09-29T13:47:00.649Z,31.30
2023-09-29T13:49:29.304Z,32.50
2023-09-29T13:51:55.474Z,32.04
2023-09-29T13:54:21.686Z,33.33
2023-09-29T13:56:47.899Z,32.62
2023-09-29T13:59:14.103Z,32.59
2023-09-29T14:01:40.319Z,31.95
2023-09-29T14:04:06.621Z,32.31
2023-09-29T14:06:32.864Z,35.63
2023-09-29T14:09:13.188Z,36.91
2023-09-29T14:11:42.772Z,37.01
2023-09-29T14:14:08.934Z,35.82
2023-09-29T14:16:35.204Z,36.30
2023-09-29T14:19:01.478Z,34.11
2023-09-29T14:21:27.687Z,37.32
2023-09-29T14:23:53.940Z,36.64
2023-09-29T14:26:22.365Z,36.58
2023-09-29T14:28:48.516Z,36.10
2023-09-29T14:31:14.997Z,35.78
2023-09-29T14:33:41.241Z,34.99
2023-09-29T14:36:07.480Z,34.20
2023-09-29T14:38:33.640Z,34.72
2023-09-29T14:40:59.811Z,37.44
2023-09-29T14:43:25.972Z,37.70
2023-09-29T14:45:52.169Z,37.68
2023-09-29T14:48:18.430Z,38.93
2023-09-29T14:50:44.644Z,38.66
2023-09-29T14:53:10.797Z,38.78
2023-09-29T14:55:36.966Z,38.74
2023-09-29T14:58:03.129Z,39.23
2023-09-29T15:00:29.301Z,40.11
2023-09-29T15:02:55.539Z,39.66
2023-09-29T15:05:21.782Z,39.48
2023-09-29T15:07:48.005Z,39.29
2023-09-29T15:10:14.191Z,38.79
2023-09-29T15:12:40.377Z,39.03
2023-09-29T15:15:06.553Z,39.63
2023-09-29T15:17:32.731Z,39.69
2023-09-29T15:19:59.002Z,39.70
2023-09-29T15:22:25.155Z,39.99
2023-09-29T15:24:51.338Z,41.17
2023-09-29T15:27:17.539Z,40.62
2023-09-29T15:29:43.717Z,40.31
2023-09-29T15:32:09.922Z,40.43
2023-09-29T15:34:36.136Z,40.17
2023-09-29T15:37:02.297Z,41.16
2023-09-29T15:39:28.601Z,40.51
2023-09-29T15:41:54.835Z,41.45
2023-09-29T15:44:21.019Z,41.68
2023-09-29T15:46:47.165Z,41.86
2023-09-29T15:49:13.344Z,41.16
2023-09-29T15:51:39.509Z,41.05
2023-09-29T15:54:05.817Z,41.01
2023-09-29T15:56:32.027Z,42.49
2023-09-29T15:58:58.212Z,41.75
2023-09-29T16:01:24.403Z,40.52
2023-09-29T16:03:50.854Z,42.80
2023-09-29T16:06:17.152Z,41.37
2023-09-29T16:08:43.557Z,43.99
2023-09-29T16:11:09.736Z,43.98
2023-09-29T16:13:35.902Z,43.93
2023-09-29T16:16:02.111Z,43.46
2023-09-29T16:18:28.371Z,43.49
2023-09-29T16:20:54.601Z,43.88
2023-09-29T16:23:20.799Z,44.20
2023-09-29T16:25:46.960Z,44.36
2023-09-29T16:28:13.146Z,44.69
2023-09-29T16:30:39.318Z,44.34
2023-09-29T16:33:05.568Z,45.58
2023-09-29T16:35:37.156Z,43.79
2023-09-29T16:38:03.887Z,44.42
2023-09-29T16:40:30.053Z,45.67
2023-09-29T16:42:56.199Z,47.30
2023-09-29T16:45:22.417Z,47.23
2023-09-29T16:47:48.687Z,47.60
2023-09-29T16:50:14.948Z,47.95
2023-09-29T16:52:41.109Z,48.41
2023-09-29T16:55:07.415Z,49.19
2023-09-29T16:57:33.716Z,49.46
2023-09-29T16:59:59.944Z,49.04
2023-09-29T17:02:26.126Z,48.53
2023-09-29T17:04:52.344Z,48.75
2023-09-29T17:07:18.586Z,49.09
2023-09-29T17:09:44.743Z,49.66
2023-09-29T17:12:11.154Z,49.48
2023-09-29T17:14:37.413Z,50.21
2023-09-29T17:17:03.580Z,50.30
2023-09-29T17:19:29.766Z,50.20
2023-09-29T17:21:55.941Z,50.08
2023-09-29T17:24:22.170Z,50.59
2023-09-29T17:26:48.362Z,49.72
2023-09-29T17:29:14.521Z,50.24
2023-09-29T17:31:40.925Z,50.90
2023-09-29T17:34:07.239Z,50.73
2023-09-29T17:36:33.425Z,50.52
2023-09-29T17:38:59.696Z,50.43
2023-09-29T17:41:25.898Z,51.73
2023-09-29T17:43:52.065Z,52.18
2023-09-29T17:46:18.278Z,51.70
2023-09-29T17:48:44.712Z,51.76
2023-09-29T17:51:10.941Z,50.88
2023-09-29T17:53:37.159Z,51.08
2023-09-29T17:56:03.312Z,50.84
2023-09-29T17:58:29.457Z,51.53
2023-09-29T18:00:55.610Z,50.45
2023-09-29T18:03:21.834Z,49.98
2023-09-29T18:05:48.033Z,50.47
2023-09-29T18:08:14.240Z,51.23
2023-09-29T18:10:40.385Z,50.95
2023-09-29T18:13:06.565Z,51.16
2023-09-29T18:15:32.766Z,51.06
2023-09-29T18:17:59.026Z,50.95
2023-09-29T18:20:25.283Z,51.31
2023-09-29T18:22:51.434Z,51.23
2023-09-29T18:25:17.602Z,51.49
2023-09-29T18:27:43.753Z,51.27
2023-09-29T18:30:09.962Z,50.63
2023-09-29T18:32:36.194Z,50.55
2023-09-29T18:35:02.446Z,49.89
2023-09-29T18:37:28.607Z,50.94
2023-09-29T18:39:54.764Z,50.90
2023-09-29T18:42:20.955Z,50.07
2023-09-29T18:44:47.188Z,49.71
2023-09-29T18:47:13.358Z,50.70
2023-09-29T18:49:39.510Z,51.98
2023-09-29T18:52:05.674Z,52.58
2023-09-29T18:54:31.849Z,52.24
2023-09-29T18:56:58.071Z,51.61
2023-09-29T18:59:24.439Z,52.36
2023-09-29T19:01:50.762Z,52.96
2023-09-29T19:04:16.984Z,52.79
2023-09-29T19:06:43.243Z,52.66
2023-09-29T19:09:09.587Z,52.98
2023-09-29T19:11:35.819Z,52.10
2023-09-29T19:14:02.087Z,51.67
2023-09-29T19:16:28.274Z,51.68
2023-09-29T19:18:54.573Z,52.79
2023-09-29T19:21:20.872Z,52.98
2023-09-29T19:23:47.186Z,52.63
2023-09-29T19:26:13.358Z,52.09
2023-09-29T19:28:39.562Z,52.61
2023-09-29T19:31:05.742Z,51.98
2023-09-29T19:33:31.947Z,52.33
2023-09-29T19:35:58.173Z,53.05
2023-09-29T19:38:24.359Z,52.67
2023-09-29T19:40:50.531Z,53.58
2023-09-29T19:43:16.683Z,54.43
2023-09-29T19:45:42.943Z,54.70
2023-09-29T19:48:09.292Z,54.17
2023-09-29T19:50:35.519Z,54.14
2023-09-29T19:53:01.706Z,54.34
2023-09-29T19:55:27.891Z,55.14
2023-09-29T19:57:54.075Z,54.02
2023-09-29T20:00:20.298Z,53.72
2023-09-29T20:02:46.508Z,53.88
2023-09-29T20:05:12.690Z,54.86
2023-09-29T20:07:38.858Z,56.23
2023-09-29T20:10:05.123Z,56.61
2023-09-29T20:12:31.312Z,55.39
2023-09-29T20:14:57.556Z,55.86
2023-09-29T20:17:23.853Z,56.26
2023-09-29T20:19:50.101Z,56.17
2023-09-29T20:22:16.260Z,55.96
2023-09-29T20:24:42.434Z,55.68
2023-09-29T20:27:08.655Z,55.84
2023-09-29T20:29:34.813Z,55.82
2023-09-29T20:32:01.048Z,56.59
2023-09-29T20:34:27.312Z,56.53
2023-09-29T20:36:53.484Z,55.64
2023-09-29T20:39:19.720Z,54.71
2023-09-29T20:41:45.926Z,55.87
2023-09-29T20:44:12.110Z,55.57
2023-09-29T20:46:38.274Z,54.02
2023-09-29T20:49:04.461Z,53.55
2023-09-29T20:51:30.662Z,54.17
2023-09-29T20:53:57.022Z,54.18
2023-09-29T20:56:23.316Z,53.50
2023-09-29T20:58:49.469Z,53.60
2023-09-29T21:01:15.680Z,53.62
2023-09-29T21:03:42.011Z,54.30
2023-09-29T21:06:08.398Z,54.17
2023-09-29T21:08:34.583Z,54.43
2023-09-29T21:11:00.770Z,55.19
2023-09-29T21:13:26.946Z,55.22
2023-09-29T21:15:53.273Z,54.97
2023-09-29T21:18:20.232Z,54.69
2023-09-29T21:20:46.458Z,54.26
2023-09-29T21:23:12.641Z,54.03
2023-09-29T21:25:38.983Z,54.37
2023-09-29T21:28:05.260Z,54.17
2023-09-29T21:30:31.491Z,52.98
2023-09-29T21:32:57.755Z,52.90
2023-09-29T21:35:23.935Z,52.60
2023-09-29T21:37:50.098Z,53.07
2023-09-29T21:40:16.379Z,53.15
2023-09-29T21:42:42.575Z,52.62
2023-09-29T21:45:08.831Z,52.88
2023-09-29T21:47:35.033Z,57.50
2023-09-29T21:50:01.222Z,62.01
2023-09-29T21:52:27.411Z,60.13
2023-09-29T21:54:53.587Z,58.25
2023-09-29T21:57:19.782Z,57.06
2023-09-29T21:59:45.967Z,55.90
2023-09-29T22:02:12.153Z,55.91
2023-09-29T22:04:38.351Z,56.20
2023-09-29T22:07:04.503Z,56.34
2023-09-29T22:09:30.705Z,56.44
2023-09-29T22:11:56.907Z,56.07
2023-09-29T22:14:23.058Z,55.97
2023-09-29T22:16:49.221Z,56.36
2023-09-29T22:19:15.422Z,55.94
2023-09-29T22:21:41.617Z,55.94
2023-09-29T22:24:07.875Z,56.40
2023-09-29T22:26:34.104Z,56.30
2023-09-29T22:29:00.325Z,56.25
2023-09-29T22:31:26.566Z,58.58
2023-09-29T22:33:52.814Z,59.33
2023-09-29T22:36:19.078Z,59.04
2023-09-29T22:38:45.248Z,57.32
2023-09-29T22:41:11.515Z,57.41
2023-09-29T22:43:37.686Z,57.40
2023-09-29T22:46:03.974Z,57.24
2023-09-29T22:48:30.254Z,57.13
2023-09-29T22:50:56.438Z,56.81
2023-09-29T22:53:22.600Z,56.72
2023-09-29T22:55:48.763Z,56.95
2023-09-29T22:58:14.932Z,56.35
2023-09-29T23:00:41.143Z,56.69
2023-09-29T23:03:07.593Z,57.42
2023-09-29T23:05:33.836Z,56.85
2023-09-29T23:07:59.994Z,57.01
2023-09-29T23:10:26.153Z,56.59
2023-09-29T23:12:52.330Z,56.54
2023-09-29T23:15:18.576Z,56.38
2023-09-29T23:17:44.853Z,55.73
2023-09-29T23:20:11.336Z,55.86
2023-09-29T23:22:37.911Z,55.80
2023-09-29T23:25:04.090Z,56.85
2023-09-29T23:27:30.356Z,57.05
2023-09-29T23:29:56.581Z,56.54
2023-09-29T23:32:22.752Z,56.66
2023-09-29T23:34:48.910Z,56.89
2023-09-29T23:37:15.092Z,56.33
2023-09-29T23:39:41.351Z,57.01
2023-09-29T23:42:07.627Z,57.12
2023-09-29T23:44:33.823Z,57.04
2023-09-29T23:46:59.998Z,56.78
2023-09-29T23:49:26.241Z,56.87
2023-09-29T23:51:52.494Z,56.62
2023-09-29T23:54:18.814Z,56.92
2023-09-29T23:56:45.003Z,58.09
2023-09-29T23:59:11.161Z,57.54
